กรุงเทพมหานคร, ประเทศไทย

01:44 AM ICT วัน มีนาคม 04, 2015 (GMT +0700)
Khu Khot | Change Station
CLOSE
Current Station
Personal Weather Stations
Location: Pathum Thani, PATHUM THANI
Elevation: 15 ft
Nearby Weather Stations

Elev 15 ft 13.96 °N, 100.65 °E | Updated 0 second ago

Mostly Cloudy
มีเมฆคลุมเป็นส่วนใหญ่
80.2 ฟาเรนไฮน์
Feels Like 86 ฟาเรนไฮน์
N
1.6
ลม ความผันแปร ลม from ทางทิศใต้และทิศตะวันออกเฉียงใต้
Gusts 3.1 mph

วันนี้
High -- | Low -- ฟาเรนไฮน์
--% Chance of Precip.
Yesterday
High -- | Low -- ฟาเรนไฮน์
Precip. -- นิ้ว
6:32 AM 6:26 PM
ข้างขึ้น, 97% visible
ความดัน 29.77 นิ้ว
ทัศนวิสัย 6.2 ไมล์
เมฆ Few 2000 ft
มีเมฆคลุมเป็นส่วนใหญ่ 30000 ft
ดัชนีความร้อน 86 ฟาเรนไฮน์
อุณหภูมิที่อากาศอาจจับตัวเป็นหยาดน้ำค้าง 76 ฟาเรนไฮน์
ความชื้น 86%
Rainfall 0.00 นิ้ว
Snow Depth Not available.
UV 0 out of 12
Pollen Not available.
Air Quality Not available.
Flu Activity Not available.
METAR VTBD 031830Z 18007KT 9999 FEW020 BKN300 28/25 Q1008 NOSIG

More Conditions Fewer Conditions

ความดัน 29.77 นิ้ว
ทัศนวิสัย 6.2 ไมล์
เมฆ Few 2000 ft
มีเมฆคลุมเป็นส่วนใหญ่ 30000 ft
ดัชนีความร้อน 86 ฟาเรนไฮน์
อุณหภูมิที่อากาศอาจจับตัวเป็นหยาดน้ำค้าง 76 ฟาเรนไฮน์
ความชื้น 86%
Rainfall 0.00 นิ้ว
Snow Depth Not available.
UV 0 out of 12
Pollen Not available.
Air Quality Not available.
Flu Activity Not available.
METAR VTBD 031830Z 18007KT 9999 FEW020 BKN300 28/25 Q1008 NOSIG

More Conditions Fewer Conditions

10-Day Weather Forecast

Almanac

ดาราศาสตร์

Mar. 04, 2015 Rise Set
Actual Time
Civil Twilight
Nautical Twilight
Astronomical Twilight
Moon
Length Of Visible Light
ความยาวของวัน
Tomorrow will be .
, % of the Moon is Illuminated

Today's Extremes

Country Highs Country Lows

Community

WunderPhotos

Upload Photos

1,802,198 photos uploaded!

WunderBlogs® & News

Nearby

Air Quality

  Air Quality AQ Index Pollutant
Not available.

Snow Depth

Station Depth Elevation

Earthquake Activity

City Distance Mag. Time & Date
Minimum magnitude displayed is 2.5.

Coastal Water Temperatures

สถานที่ อุณหภูมิ

Nearby Weather Stations